createdAt,value
2018-01-19T00:00:11.315Z,5.65
2018-01-19T00:02:38.902Z,5.62
2018-01-19T00:05:06.480Z,4.35
2018-01-19T00:07:34.060Z,5.62
2018-01-19T00:10:01.644Z,5.32
2018-01-19T00:12:29.272Z,6.10
2018-01-19T00:14:56.899Z,3.45
2018-01-19T00:17:24.517Z,4.55
2018-01-19T00:19:52.115Z,3.60
2018-01-19T00:22:19.727Z,5.40
2018-01-19T00:24:48.092Z,4.50
2018-01-19T00:27:15.717Z,3.12
2018-01-19T00:29:43.303Z,4.57
2018-01-19T00:32:10.911Z,5.37
2018-01-19T00:34:38.517Z,4.25
2018-01-19T00:37:06.138Z,2.35
2018-01-19T00:39:33.699Z,5.50
2018-01-19T00:42:01.319Z,3.33
2018-01-19T00:44:29.696Z,9.38
2018-01-19T00:46:57.303Z,4.32
2018-01-19T00:49:24.925Z,4.12
2018-01-19T00:51:53.230Z,2.95
2018-01-19T00:54:20.819Z,3.65
2018-01-19T00:56:48.376Z,3.80
2018-01-19T00:59:15.987Z,4.15
2018-01-19T01:01:44.383Z,3.95
2018-01-19T01:04:11.977Z,4.60
2018-01-19T01:06:39.583Z,3.17
2018-01-19T01:09:07.926Z,2.65
2018-01-19T01:11:35.570Z,5.22
2018-01-19T01:14:03.139Z,4.85
2018-01-19T01:16:30.781Z,3.47
2018-01-19T01:18:58.387Z,6.87
2018-01-19T01:21:25.967Z,2.35
2018-01-19T01:23:54.311Z,6.05
2018-01-19T01:26:21.918Z,3.17
2018-01-19T01:28:49.511Z,3.17
2018-01-19T01:31:17.082Z,7.07
2018-01-19T01:33:44.690Z,4.37
2018-01-19T01:36:12.287Z,2.97
2018-01-19T01:38:39.892Z,2.65
2018-01-19T01:41:07.484Z,4.22
2018-01-19T01:43:35.045Z,2.75
2018-01-19T01:46:02.620Z,3.78
2018-01-19T01:48:30.200Z,6.43
2018-01-19T01:50:57.802Z,2.10
2018-01-19T01:53:26.158Z,3.17
2018-01-19T01:55:53.724Z,4.35
2018-01-19T01:58:21.355Z,6.90
2018-01-19T02:00:48.908Z,2.72
2018-01-19T02:03:16.518Z,3.90
2018-01-19T02:05:44.883Z,3.03
2018-01-19T02:08:12.435Z,3.95
2018-01-19T02:10:40.018Z,4.12
2018-01-19T02:13:08.359Z,4.43
2018-01-19T02:15:35.937Z,7.78
2018-01-19T02:18:03.528Z,5.37
2018-01-19T02:20:31.118Z,2.67
2018-01-19T02:22:58.702Z,2.95
2018-01-19T02:25:26.357Z,1.55
2018-01-19T02:27:53.929Z,1.87
2018-01-19T02:30:21.491Z,2.45
2018-01-19T02:32:49.109Z,2.65
2018-01-19T02:35:16.702Z,1.90
2018-01-19T02:37:44.322Z,1.20
2018-01-19T02:40:11.883Z,1.55
2018-01-19T02:42:39.492Z,2.20
2018-01-19T02:45:07.102Z,2.47
2018-01-19T02:47:34.680Z,1.00
2018-01-19T02:50:02.317Z,1.02
2018-01-19T02:52:29.879Z,1.48
2018-01-19T02:54:57.467Z,3.85
2018-01-19T02:57:25.032Z,1.20
2018-01-19T02:59:52.647Z,2.33
2018-01-19T03:02:20.990Z,1.85
2018-01-19T03:04:48.604Z,4.72
2018-01-19T03:07:16.216Z,1.20
2018-01-19T03:09:43.765Z,1.65
2018-01-19T03:12:11.376Z,1.73
2018-01-19T03:14:38.953Z,1.80
2018-01-19T03:17:06.539Z,1.12
2018-01-19T03:19:34.154Z,1.98
2018-01-19T03:22:01.786Z,1.95
2018-01-19T03:24:30.139Z,2.85
2018-01-19T03:26:57.716Z,1.92
2018-01-19T03:29:25.366Z,0.90
2018-01-19T03:31:52.938Z,1.40
2018-01-19T03:34:21.296Z,9.38
2018-01-19T03:36:48.864Z,10.00
2018-01-19T03:39:16.447Z,3.97
2018-01-19T03:41:44.802Z,1.70
2018-01-19T03:44:12.411Z,1.50
2018-01-19T03:46:40.034Z,1.10
2018-01-19T03:49:07.617Z,2.67
2018-01-19T03:51:36.091Z,1.12
2018-01-19T03:54:03.735Z,1.30
2018-01-19T03:56:31.286Z,1.67
2018-01-19T03:58:58.842Z,1.27
2018-01-19T04:01:26.438Z,1.73
2018-01-19T04:03:54.012Z,0.90
2018-01-19T04:06:21.632Z,1.42
2018-01-19T04:08:49.206Z,1.00
2018-01-19T04:11:17.574Z,1.00
2018-01-19T04:13:45.165Z,1.25
2018-01-19T04:16:12.735Z,1.00
2018-01-19T04:18:40.311Z,2.00
2018-01-19T04:21:07.936Z,1.10
2018-01-19T04:23:35.503Z,1.17
2018-01-19T04:26:03.170Z,1.00
2018-01-19T04:28:30.762Z,1.10
2018-01-19T04:30:58.329Z,1.15
2018-01-19T04:33:25.936Z,1.30
2018-01-19T04:35:53.578Z,1.20
2018-01-19T04:38:21.204Z,1.55
2018-01-19T04:40:48.794Z,1.30
2018-01-19T04:43:16.373Z,1.27
2018-01-19T04:45:44.774Z,1.40
2018-01-19T04:48:12.355Z,1.80
2018-01-19T04:50:39.991Z,1.40
2018-01-19T04:53:07.548Z,2.00
2018-01-19T04:55:35.152Z,3.08
2018-01-19T04:58:02.743Z,1.10
2018-01-19T05:00:31.106Z,1.75
2018-01-19T05:02:58.712Z,1.52
2018-01-19T05:05:26.331Z,1.50
2018-01-19T05:07:53.942Z,2.20
2018-01-19T05:10:21.562Z,2.80
2018-01-19T05:12:49.933Z,2.90
2018-01-19T05:15:17.574Z,1.60
2018-01-19T05:17:45.149Z,2.35
2018-01-19T05:20:12.714Z,7.70
2018-01-19T05:22:40.298Z,4.70
2018-01-19T05:25:07.891Z,4.25
2018-01-19T05:27:35.525Z,3.33
2018-01-19T05:30:03.084Z,2.40
2018-01-19T05:32:30.692Z,2.97
2018-01-19T05:34:58.323Z,4.47
2018-01-19T05:37:25.876Z,2.67
2018-01-19T05:39:53.485Z,2.42
2018-01-19T05:42:21.069Z,2.85
2018-01-19T05:44:49.444Z,2.83
2018-01-19T05:47:17.841Z,2.53
2018-01-19T05:49:45.442Z,4.47
2018-01-19T05:52:12.979Z,4.12
2018-01-19T05:54:41.364Z,5.72
2018-01-19T05:57:09.000Z,3.92
2018-01-19T05:59:36.584Z,3.30
2018-01-19T06:02:04.228Z,7.78
2018-01-19T06:04:31.798Z,8.20
2018-01-19T06:06:59.402Z,6.90
2018-01-19T06:09:26.985Z,7.15
2018-01-19T06:11:55.342Z,5.93
2018-01-19T06:14:22.962Z,5.62
2018-01-19T06:16:50.596Z,12.20
2018-01-19T06:19:18.199Z,9.20
2018-01-19T06:21:45.763Z,4.82
2018-01-19T06:24:13.328Z,4.18
2018-01-19T06:26:40.898Z,4.75
2018-01-19T06:29:08.523Z,4.47
2018-01-19T06:31:36.122Z,4.25
2018-01-19T06:34:03.739Z,7.68
2018-01-19T06:36:31.294Z,4.18
2018-01-19T06:38:58.920Z,7.12
2018-01-19T06:41:27.283Z,9.35
2018-01-19T06:43:54.910Z,4.65
2018-01-19T06:46:22.531Z,4.50
2018-01-19T06:48:50.902Z,4.60
2018-01-19T06:51:19.276Z,3.05
2018-01-19T06:53:47.673Z,7.85
2018-01-19T06:56:15.246Z,4.82
2018-01-19T06:58:42.890Z,2.75
2018-01-19T07:01:11.237Z,2.20
2018-01-19T07:03:38.855Z,4.57
2018-01-19T07:06:06.474Z,4.45
2018-01-19T07:08:34.087Z,5.18
2018-01-19T07:11:01.699Z,4.55
2018-01-19T07:13:30.095Z,3.05
2018-01-19T07:15:57.658Z,6.12
2018-01-19T07:18:25.293Z,4.12
2018-01-19T07:20:52.919Z,4.78
2018-01-19T07:23:20.515Z,7.55
2018-01-19T07:25:48.835Z,4.45
2018-01-19T07:28:16.472Z,3.78
2018-01-19T07:30:44.035Z,2.25
2018-01-19T07:33:11.652Z,6.40
2018-01-19T07:35:39.219Z,3.20
2018-01-19T07:38:06.896Z,2.55
2018-01-19T07:40:35.263Z,2.20
2018-01-19T07:43:02.841Z,3.67
2018-01-19T07:45:31.258Z,3.47
2018-01-19T07:47:58.835Z,1.98
2018-01-19T07:50:26.402Z,5.15
2018-01-19T07:52:54.042Z,6.05
2018-01-19T07:55:21.644Z,5.40
2018-01-19T07:57:49.224Z,3.62
2018-01-19T08:00:16.843Z,5.20
2018-01-19T08:02:44.474Z,4.28
2018-01-19T08:05:12.102Z,4.95
2018-01-19T08:07:40.507Z,6.55
2018-01-19T08:10:08.071Z,7.80
2018-01-19T08:12:35.711Z,5.60
2018-01-19T08:15:03.328Z,2.85
2018-01-19T08:17:30.914Z,6.85
2018-01-19T08:19:59.314Z,5.22
2018-01-19T08:22:26.920Z,4.37
2018-01-19T08:24:54.525Z,3.65
2018-01-19T08:27:22.179Z,5.25
2018-01-19T08:29:49.796Z,3.37
2018-01-19T08:32:17.383Z,5.10
2018-01-19T08:34:44.968Z,6.07
2018-01-19T08:37:12.571Z,3.28
2018-01-19T08:39:40.153Z,6.57
2018-01-19T08:42:07.796Z,3.05
2018-01-19T08:44:35.374Z,3.65
2018-01-19T08:47:02.995Z,3.65
2018-01-19T08:49:30.578Z,4.40
2018-01-19T08:51:58.170Z,5.53
2018-01-19T08:54:26.543Z,4.50
2018-01-19T08:56:54.150Z,3.30
2018-01-19T08:59:21.783Z,4.40
2018-01-19T09:01:49.362Z,5.12
2018-01-19T09:04:16.926Z,4.40
2018-01-19T09:06:44.511Z,3.70
2018-01-19T09:09:12.106Z,4.32
2018-01-19T09:11:40.481Z,6.82
2018-01-19T09:14:08.044Z,5.30
2018-01-19T09:16:36.439Z,3.83
2018-01-19T09:19:04.864Z,8.82
2018-01-19T09:21:32.466Z,3.78
2018-01-19T09:24:00.845Z,6.82
2018-01-19T09:26:29.230Z,3.53
2018-01-19T09:28:57.584Z,4.62
2018-01-19T09:31:25.226Z,3.28
2018-01-19T09:33:52.774Z,4.80
2018-01-19T09:36:20.381Z,7.03
2018-01-19T09:38:48.717Z,5.78
2018-01-19T09:41:16.313Z,5.78
2018-01-19T09:43:43.858Z,4.35
2018-01-19T09:46:11.466Z,4.60
2018-01-19T09:48:39.047Z,3.67
2018-01-19T09:51:06.667Z,5.65
2018-01-19T09:53:35.038Z,4.57
2018-01-19T09:56:03.419Z,5.35
2018-01-19T09:58:31.731Z,7.22
2018-01-19T10:00:59.305Z,3.92
2018-01-19T10:03:26.891Z,6.15
2018-01-19T10:05:54.514Z,7.15
2018-01-19T10:08:22.067Z,6.50
2018-01-19T10:10:49.672Z,9.00
2018-01-19T10:13:17.271Z,5.28
2018-01-19T10:15:44.831Z,5.75
2018-01-19T10:18:12.457Z,5.05
2018-01-19T10:20:40.060Z,5.18
2018-01-19T10:23:07.632Z,5.47
2018-01-19T10:25:35.273Z,5.90
2018-01-19T10:28:02.834Z,7.62
2018-01-19T10:30:30.432Z,5.40
2018-01-19T10:32:58.041Z,5.40
2018-01-19T10:35:25.622Z,4.55
2018-01-19T10:37:53.204Z,4.43
2018-01-19T10:40:20.841Z,4.35
2018-01-19T10:42:48.415Z,3.00
2018-01-19T10:45:15.979Z,4.55
2018-01-19T10:47:51.251Z,3.92
2018-01-19T10:50:18.832Z,4.45
2018-01-19T10:52:47.225Z,5.30
2018-01-19T10:55:15.593Z,5.30
2018-01-19T10:57:43.967Z,5.50
2018-01-19T11:00:12.303Z,3.90
2018-01-19T11:02:39.878Z,5.85
2018-01-19T11:05:07.529Z,4.70
2018-01-19T11:07:35.149Z,6.25
2018-01-19T11:10:02.754Z,8.43
2018-01-19T11:12:30.332Z,6.40
2018-01-19T11:14:57.891Z,3.05
2018-01-19T11:17:25.469Z,6.25
2018-01-19T11:19:53.806Z,6.40
2018-01-19T11:22:21.399Z,7.03
2018-01-19T11:24:49.029Z,6.47
2018-01-19T11:27:16.624Z,9.98
2018-01-19T11:29:44.981Z,4.40
2018-01-19T11:32:12.602Z,4.50
2018-01-19T11:34:40.191Z,4.32
2018-01-19T11:37:07.791Z,4.18
2018-01-19T11:39:36.169Z,8.05
2018-01-19T11:42:03.790Z,5.72
2018-01-19T11:44:31.396Z,2.50
2018-01-19T11:46:59.007Z,4.95
2018-01-19T11:49:26.568Z,5.50
2018-01-19T11:51:54.149Z,4.45
2018-01-19T11:54:21.779Z,3.50
2018-01-19T11:56:49.399Z,4.40
2018-01-19T11:59:17.732Z,3.75
2018-01-19T12:01:45.356Z,6.75
2018-01-19T12:04:12.933Z,5.32
2018-01-19T12:06:40.550Z,24.23
2018-01-19T12:09:08.215Z,21.37
2018-01-19T12:11:36.524Z,10.02
2018-01-19T12:14:04.209Z,4.78
2018-01-19T12:16:31.751Z,10.70
2018-01-19T12:18:59.376Z,8.45
2018-01-19T12:21:26.984Z,5.40
2018-01-19T12:23:54.590Z,4.50
2018-01-19T12:26:22.952Z,6.47
2018-01-19T12:28:50.547Z,3.17
2018-01-19T12:31:18.143Z,2.33
2018-01-19T12:33:45.708Z,7.93
2018-01-19T12:36:13.299Z,3.42
2018-01-19T12:38:41.715Z,2.95
2018-01-19T12:41:09.330Z,3.87
2018-01-19T12:43:36.893Z,4.43
2018-01-19T12:46:05.253Z,3.08
2018-01-19T12:48:32.864Z,3.30
2018-01-19T12:51:00.465Z,6.32
2018-01-19T12:53:28.076Z,2.85
2018-01-19T12:55:55.694Z,4.10
2018-01-19T12:58:23.276Z,2.90
2018-01-19T13:00:50.902Z,3.40
2018-01-19T13:03:18.502Z,5.10
2018-01-19T13:05:46.134Z,7.07
2018-01-19T13:08:13.711Z,2.15
2018-01-19T13:10:41.307Z,3.60
2018-01-19T13:13:08.937Z,6.82
2018-01-19T13:15:37.320Z,4.03
2018-01-19T13:18:05.722Z,4.95
2018-01-19T13:20:33.409Z,5.62
2018-01-19T13:23:01.044Z,4.75
2018-01-19T13:25:28.634Z,5.40
2018-01-19T13:27:56.222Z,5.45
2018-01-19T13:30:23.823Z,3.10
2018-01-19T13:32:51.470Z,5.70
2018-01-19T13:35:19.822Z,6.75
2018-01-19T13:37:47.431Z,3.15
2018-01-19T13:40:15.035Z,4.00
2018-01-19T13:42:42.643Z,4.65
2018-01-19T13:45:10.259Z,2.70
2018-01-19T13:47:37.903Z,4.40
2018-01-19T13:50:05.513Z,2.97
2018-01-19T13:52:33.866Z,5.62
2018-01-19T13:55:01.495Z,4.00
2018-01-19T13:57:29.094Z,4.57
2018-01-19T13:59:56.710Z,4.85
2018-01-19T14:02:24.310Z,6.32
2018-01-19T14:04:51.891Z,6.80
2018-01-19T14:07:19.494Z,4.90
2018-01-19T14:09:47.090Z,4.12
2018-01-19T14:12:14.686Z,5.55
2018-01-19T14:14:42.304Z,8.73
2018-01-19T14:17:09.883Z,6.28
2018-01-19T14:19:38.259Z,3.42
2018-01-19T14:22:05.846Z,5.93
2018-01-19T14:24:33.491Z,3.30
2018-01-19T14:27:01.874Z,4.93
2018-01-19T14:29:29.477Z,8.48
2018-01-19T14:31:57.039Z,4.32
2018-01-19T14:34:30.694Z,5.35
2018-01-19T14:36:58.268Z,6.07
2018-01-19T14:39:25.818Z,4.22
2018-01-19T14:41:53.415Z,3.47
2018-01-19T14:44:20.989Z,3.33
2018-01-19T14:46:48.546Z,3.10
2018-01-19T14:49:16.142Z,4.00
2018-01-19T14:51:44.486Z,3.50
2018-01-19T14:54:12.115Z,5.40
2018-01-19T14:56:39.694Z,3.45
2018-01-19T14:59:07.263Z,8.73
2018-01-19T15:01:35.452Z,4.05
2018-01-19T15:04:03.042Z,6.12
2018-01-19T15:06:31.437Z,3.28
2018-01-19T15:08:59.003Z,6.15
2018-01-19T15:11:26.601Z,6.22
2018-01-19T15:13:54.207Z,4.80
2018-01-19T15:16:21.766Z,2.90
2018-01-19T15:18:49.372Z,4.80
2018-01-19T15:21:16.917Z,2.87
2018-01-19T15:23:44.471Z,4.97
2018-01-19T15:26:12.052Z,8.73
2018-01-19T15:28:39.628Z,5.45
2018-01-19T15:31:07.203Z,3.58
2018-01-19T15:33:34.831Z,6.15
2018-01-19T15:36:02.420Z,6.45
2018-01-19T15:38:29.991Z,4.55
2018-01-19T15:40:58.351Z,9.73
2018-01-19T15:43:25.927Z,5.12
2018-01-19T15:45:54.249Z,4.30
2018-01-19T15:48:21.800Z,7.85
2018-01-19T15:50:49.414Z,4.40
2018-01-19T15:53:17.793Z,2.72
2018-01-19T15:55:45.422Z,7.10
2018-01-19T15:58:13.000Z,4.68
2018-01-19T16:00:40.624Z,7.32
2018-01-19T16:03:08.222Z,4.30
2018-01-19T16:05:35.863Z,5.87
2018-01-19T16:08:03.451Z,5.30
2018-01-19T16:10:31.063Z,4.07
2018-01-19T16:12:58.590Z,4.43
2018-01-19T16:15:26.967Z,6.45
2018-01-19T16:17:55.316Z,6.50
2018-01-19T16:20:22.946Z,6.28
2018-01-19T16:22:50.563Z,7.28
2018-01-19T16:25:18.933Z,4.12
2018-01-19T16:27:47.290Z,4.00
2018-01-19T16:30:14.914Z,5.65
2018-01-19T16:32:42.515Z,17.08
2018-01-19T16:35:10.146Z,11.90
2018-01-19T16:37:37.742Z,10.88
2018-01-19T16:40:05.361Z,12.00
2018-01-19T16:42:32.935Z,12.43
2018-01-19T16:45:00.578Z,17.50
2018-01-19T16:47:28.162Z,11.88
2018-01-19T16:49:55.771Z,14.07
2018-01-19T16:52:23.336Z,10.10
2018-01-19T16:54:50.910Z,11.52
2018-01-19T16:57:18.506Z,12.27
2018-01-19T16:59:46.931Z,9.82
2018-01-19T17:02:14.518Z,9.10
2018-01-19T17:04:42.117Z,7.15
2018-01-19T17:07:09.734Z,9.27
2018-01-19T17:09:37.367Z,9.73
2018-01-19T17:12:04.935Z,11.98
2018-01-19T17:14:32.527Z,7.07
2018-01-19T17:17:00.099Z,4.53
2018-01-19T17:19:27.667Z,4.80
2018-01-19T17:21:55.243Z,3.28
2018-01-19T17:24:23.770Z,5.43
2018-01-19T17:26:51.416Z,4.45
2018-01-19T17:29:19.008Z,6.95
2018-01-19T17:31:46.576Z,4.53
2018-01-19T17:34:14.193Z,6.55
2018-01-19T17:36:41.794Z,7.10
2018-01-19T17:39:09.398Z,6.97
2018-01-19T17:41:37.852Z,7.78
2018-01-19T17:44:05.418Z,10.45
2018-01-19T17:46:33.023Z,8.23
2018-01-19T17:49:00.580Z,8.88
2018-01-19T17:51:28.155Z,9.45
2018-01-19T17:53:55.808Z,9.48
2018-01-19T17:56:23.387Z,9.63
2018-01-19T17:58:51.024Z,9.18
2018-01-19T18:01:18.622Z,15.70
2018-01-19T18:03:46.187Z,11.48
2018-01-19T18:06:13.853Z,8.18
2018-01-19T18:08:41.466Z,9.32
2018-01-19T18:11:09.053Z,7.53
2018-01-19T18:13:36.691Z,5.87
2018-01-19T18:16:04.325Z,11.32
2018-01-19T18:18:31.910Z,9.25
2018-01-19T18:20:59.464Z,10.98
2018-01-19T18:23:27.069Z,9.80
2018-01-19T18:25:54.641Z,8.82
2018-01-19T18:28:22.295Z,9.93
2018-01-19T18:30:49.905Z,8.77
2018-01-19T18:33:19.501Z,7.75
2018-01-19T18:35:47.115Z,14.35
2018-01-19T18:38:14.695Z,6.95
2018-01-19T18:40:43.465Z,14.15
2018-01-19T18:43:11.073Z,16.42
2018-01-19T18:45:38.687Z,10.07
2018-01-19T18:48:06.347Z,10.52
2018-01-19T18:50:33.921Z,8.48
2018-01-19T18:53:01.523Z,9.07
2018-01-19T18:55:29.082Z,10.68
2018-01-19T18:57:56.707Z,8.57
2018-01-19T19:00:24.292Z,8.30
2018-01-19T19:02:52.675Z,8.75
2018-01-19T19:05:20.292Z,10.95
2018-01-19T19:07:47.899Z,7.35
2018-01-19T19:10:15.491Z,7.70
2018-01-19T19:12:43.100Z,12.80
2018-01-19T19:15:13.412Z,11.32
2018-01-19T19:17:41.798Z,8.98
2018-01-19T19:20:10.201Z,11.40
2018-01-19T19:22:39.808Z,10.05
2018-01-19T19:25:10.819Z,12.57
2018-01-19T19:27:51.040Z,13.00
2018-01-19T19:30:18.650Z,13.65
2018-01-19T19:32:53.967Z,12.43
2018-01-19T19:35:21.575Z,10.70
2018-01-19T19:37:49.195Z,10.57
2018-01-19T19:40:16.781Z,8.32
2018-01-19T19:42:45.128Z,12.27
2018-01-19T19:45:12.749Z,8.82
2018-01-19T19:47:40.352Z,8.23
2018-01-19T19:50:07.971Z,6.20
2018-01-19T19:52:35.626Z,7.85
2018-01-19T19:55:03.241Z,8.38
2018-01-19T19:57:31.642Z,5.80
2018-01-19T19:59:59.245Z,10.70
2018-01-19T20:02:26.834Z,10.77
2018-01-19T20:04:54.432Z,10.07
2018-01-19T20:07:22.211Z,8.18
2018-01-19T20:09:49.819Z,8.00
2018-01-19T20:12:17.418Z,8.38
2018-01-19T20:14:45.032Z,8.98
2018-01-19T20:17:12.647Z,8.18
2018-01-19T20:19:59.620Z,7.80
2018-01-19T20:22:27.989Z,8.63
2018-01-19T20:24:55.691Z,11.18
2018-01-19T20:27:23.287Z,8.73
2018-01-19T20:29:50.870Z,8.98
2018-01-19T20:32:18.478Z,8.52
2018-01-19T20:34:46.094Z,7.50
2018-01-19T20:37:13.761Z,7.35
2018-01-19T20:39:41.411Z,6.20
2018-01-19T20:42:09.055Z,5.37
2018-01-19T20:44:36.637Z,4.47
2018-01-19T20:47:04.211Z,4.20
2018-01-19T20:49:32.666Z,5.20
2018-01-19T20:52:00.276Z,4.95
2018-01-19T20:54:27.892Z,7.72
2018-01-19T20:56:55.475Z,6.18
2018-01-19T20:59:23.836Z,6.70
2018-01-19T21:01:55.500Z,6.82
2018-01-19T21:04:33.228Z,6.95
2018-01-19T21:07:00.851Z,6.03
2018-01-19T21:09:28.466Z,5.25
2018-01-19T21:11:56.031Z,4.37
2018-01-19T21:14:23.699Z,8.15
2018-01-19T21:16:51.273Z,20.23
2018-01-19T21:19:18.882Z,6.30
2018-01-19T21:21:46.481Z,6.68
2018-01-19T21:24:14.088Z,4.00
2018-01-19T21:26:44.362Z,3.70
2018-01-19T21:29:11.971Z,3.60
2018-01-19T21:31:40.337Z,4.18
2018-01-19T21:34:07.924Z,3.47
2018-01-19T21:36:35.531Z,3.72
2018-01-19T21:39:03.130Z,4.12
2018-01-19T21:41:31.531Z,4.28
2018-01-19T21:43:59.125Z,3.90
2018-01-19T21:46:26.754Z,2.75
2018-01-19T21:48:54.306Z,3.70
2018-01-19T21:51:21.959Z,4.05
2018-01-19T21:53:51.626Z,4.07
2018-01-19T21:56:19.236Z,5.85
2018-01-19T21:58:46.859Z,6.62
2018-01-19T22:01:14.435Z,8.10
2018-01-19T22:03:42.064Z,11.73
2018-01-19T22:06:09.675Z,6.45
2018-01-19T22:08:37.293Z,11.43
2018-01-19T22:11:04.884Z,8.77
2018-01-19T22:13:33.272Z,11.27
2018-01-19T22:16:00.943Z,7.93
2018-01-19T22:18:28.549Z,8.35
2018-01-19T22:20:56.144Z,8.77
2018-01-19T22:23:24.521Z,9.43
2018-01-19T22:25:52.872Z,3.85
2018-01-19T22:28:20.470Z,3.83
2018-01-19T22:30:48.075Z,1.60
2018-01-19T22:33:15.724Z,3.85
2018-01-19T22:35:43.308Z,2.35
2018-01-19T22:38:10.877Z,1.52
2018-01-19T22:40:38.495Z,2.20
2018-01-19T22:43:06.079Z,2.53
2018-01-19T22:45:33.695Z,1.50
2018-01-19T22:48:01.246Z,2.10
2018-01-19T22:50:28.831Z,2.20
2018-01-19T22:53:01.927Z,3.45
2018-01-19T22:55:29.541Z,3.15
2018-01-19T22:57:57.120Z,4.22
2018-01-19T23:00:25.465Z,3.40
2018-01-19T23:02:53.074Z,3.87
2018-01-19T23:05:20.635Z,4.10
2018-01-19T23:07:48.252Z,5.50
2018-01-19T23:10:15.842Z,4.30
2018-01-19T23:12:43.435Z,5.97
2018-01-19T23:15:11.005Z,4.82
2018-01-19T23:17:38.616Z,5.53
2018-01-19T23:20:06.213Z,5.00
2018-01-19T23:22:33.866Z,5.97
2018-01-19T23:25:01.468Z,4.78
2018-01-19T23:27:29.086Z,7.22
2018-01-19T23:29:56.695Z,6.55
2018-01-19T23:32:24.251Z,6.93
2018-01-19T23:34:51.870Z,6.20
2018-01-19T23:37:19.451Z,7.37
2018-01-19T23:39:47.095Z,9.13
2018-01-19T23:42:14.721Z,9.40
2018-01-19T23:44:42.351Z,7.07
2018-01-19T23:47:09.959Z,8.13
2018-01-19T23:49:37.585Z,7.90
2018-01-19T23:52:05.216Z,9.55
2018-01-19T23:54:32.816Z,8.57
2018-01-19T23:57:00.461Z,10.50
2018-01-19T23:59:28.072Z,6.72
